createdAt,value
2022-10-08T00:02:39.842Z,16.87
2022-10-08T00:05:43.521Z,16.92
2022-10-08T00:09:06.954Z,17.05
2022-10-08T00:12:09.481Z,16.45
2022-10-08T00:15:15.825Z,17.77
2022-10-08T00:18:20.864Z,17.70
2022-10-08T00:21:32.481Z,16.30
2022-10-08T00:24:35.633Z,16.42
2022-10-08T00:27:38.114Z,15.73
2022-10-08T00:30:44.530Z,16.40
2022-10-08T00:33:56.611Z,16.30
2022-10-08T00:36:59.284Z,15.82
2022-10-08T00:40:01.865Z,16.25
2022-10-08T00:43:04.355Z,16.48
2022-10-08T00:46:19.381Z,16.67
2022-10-08T00:49:22.961Z,16.50
2022-10-08T00:52:30.443Z,16.15
2022-10-08T00:55:34.023Z,16.90
2022-10-08T00:58:37.685Z,17.17
2022-10-08T01:01:44.152Z,15.70
2022-10-08T01:04:48.957Z,15.93
2022-10-08T01:07:56.944Z,15.50
2022-10-08T01:11:23.445Z,15.25
2022-10-08T01:14:51.000Z,15.75
2022-10-08T01:18:35.233Z,15.10
2022-10-08T01:22:13.609Z,15.53
2022-10-08T01:25:33.513Z,14.63
2022-10-08T01:28:43.853Z,15.35
2022-10-08T01:31:51.267Z,16.30
2022-10-08T01:35:03.953Z,16.23
2022-10-08T01:38:08.848Z,17.37
2022-10-08T01:41:14.081Z,17.52
2022-10-08T01:44:24.154Z,16.75
2022-10-08T01:47:31.039Z,15.98
2022-10-08T01:50:41.314Z,16.17
2022-10-08T01:53:47.757Z,15.73
2022-10-08T01:56:54.072Z,16.25
2022-10-08T02:00:03.308Z,15.80
2022-10-08T02:03:14.360Z,16.23
2022-10-08T02:06:17.074Z,16.23
2022-10-08T02:09:21.512Z,16.50
2022-10-08T02:12:25.008Z,16.85
2022-10-08T02:15:59.695Z,18.00
2022-10-08T02:19:28.945Z,16.77
2022-10-08T02:22:37.731Z,15.43
2022-10-08T02:25:48.974Z,16.50
2022-10-08T02:29:15.613Z,15.93
2022-10-08T02:32:23.620Z,14.90
2022-10-08T02:35:39.760Z,15.85
2022-10-08T02:38:48.046Z,15.30
2022-10-08T02:41:56.954Z,15.40
2022-10-08T02:45:08.654Z,16.15
2022-10-08T02:48:23.261Z,17.17
2022-10-08T02:51:28.896Z,16.67
2022-10-08T02:54:39.046Z,14.10
2022-10-08T02:57:48.986Z,15.73
2022-10-08T03:01:07.459Z,15.93
2022-10-08T03:04:18.766Z,16.38
2022-10-08T03:07:24.299Z,16.77
2022-10-08T03:10:30.593Z,16.00
2022-10-08T03:13:42.974Z,15.70
2022-10-08T03:16:48.106Z,15.93
2022-10-08T03:19:51.126Z,15.65
2022-10-08T03:23:01.280Z,16.95
2022-10-08T03:26:04.091Z,16.37
2022-10-08T03:29:07.296Z,17.33
2022-10-08T03:32:10.059Z,17.00
2022-10-08T03:35:12.538Z,17.17
2022-10-08T03:38:15.903Z,18.25
2022-10-08T03:41:19.136Z,18.70
2022-10-08T03:44:22.153Z,17.70
2022-10-08T03:47:25.122Z,16.65
2022-10-08T03:50:27.763Z,17.73
2022-10-08T03:53:33.813Z,17.40
2022-10-08T03:56:37.143Z,17.33
2022-10-08T03:59:40.749Z,18.20
2022-10-08T04:02:48.982Z,18.42
2022-10-08T04:05:52.256Z,20.13
2022-10-08T04:09:00.858Z,18.20
2022-10-08T04:12:03.690Z,19.70
2022-10-08T04:15:06.923Z,18.87
2022-10-08T04:18:13.036Z,19.48
2022-10-08T04:21:18.029Z,18.35
2022-10-08T04:24:21.825Z,19.58
2022-10-08T04:27:25.304Z,19.37
2022-10-08T04:30:30.187Z,18.47
2022-10-08T04:33:33.965Z,18.83
2022-10-08T04:36:37.182Z,19.25
2022-10-08T04:39:40.290Z,19.08
2022-10-08T04:42:42.814Z,18.43
2022-10-08T04:45:47.368Z,18.27
2022-10-08T04:48:55.385Z,18.73
2022-10-08T04:51:57.957Z,19.65
2022-10-08T04:55:01.338Z,21.45
2022-10-08T04:58:03.811Z,18.70
2022-10-08T05:01:08.980Z,18.00
2022-10-08T05:04:11.558Z,17.17
2022-10-08T05:07:14.765Z,18.17
2022-10-08T05:10:17.834Z,17.00
2022-10-08T05:13:21.439Z,17.00
2022-10-08T05:16:26.077Z,18.03
2022-10-08T05:19:29.281Z,16.35
2022-10-08T05:22:32.876Z,16.83
2022-10-08T05:25:38.704Z,16.58
2022-10-08T05:28:42.286Z,16.87
2022-10-08T05:31:45.848Z,16.57
2022-10-08T05:34:49.236Z,17.42
2022-10-08T05:37:51.826Z,16.13
2022-10-08T05:40:54.261Z,18.13
2022-10-08T05:43:58.967Z,17.63
2022-10-08T05:47:02.283Z,17.37
2022-10-08T05:50:05.930Z,18.08
2022-10-08T05:53:09.431Z,18.50
2022-10-08T05:56:13.022Z,18.60
2022-10-08T05:59:21.660Z,19.30
2022-10-08T06:02:24.951Z,17.57
2022-10-08T06:05:28.870Z,18.60
2022-10-08T06:08:34.226Z,19.70
2022-10-08T06:11:37.990Z,19.45
2022-10-08T06:14:41.357Z,19.87
2022-10-08T06:17:44.887Z,19.93
2022-10-08T06:20:47.544Z,19.15
2022-10-08T06:23:55.588Z,19.48
2022-10-08T06:26:58.288Z,19.10
2022-10-08T06:30:01.365Z,20.27
2022-10-08T06:33:05.014Z,21.40
2022-10-08T06:36:19.780Z,20.65
2022-10-08T06:39:22.418Z,19.92
2022-10-08T06:42:24.817Z,20.10
2022-10-08T06:45:27.889Z,21.53
2022-10-08T06:48:30.706Z,21.00
2022-10-08T06:51:34.254Z,21.27
2022-10-08T06:54:36.763Z,19.63
2022-10-08T06:57:39.467Z,20.98
2022-10-08T07:00:46.278Z,20.30
2022-10-08T07:04:00.737Z,20.10
2022-10-08T07:07:04.244Z,21.27
2022-10-08T07:10:07.126Z,21.27
2022-10-08T07:13:09.649Z,19.80
2022-10-08T07:16:20.991Z,19.93
2022-10-08T07:19:24.918Z,19.90
2022-10-08T07:22:27.486Z,19.48
2022-10-08T07:25:29.993Z,19.60
2022-10-08T07:28:35.923Z,20.60
2022-10-08T07:31:39.639Z,21.07
2022-10-08T07:34:44.223Z,20.57
2022-10-08T07:37:46.865Z,19.27
2022-10-08T07:40:54.018Z,19.92
2022-10-08T07:44:01.258Z,18.45
2022-10-08T07:47:04.555Z,19.33
2022-10-08T07:50:07.376Z,19.13
2022-10-08T07:53:09.852Z,17.60
2022-10-08T07:56:15.268Z,18.15
2022-10-08T07:59:18.549Z,17.48
2022-10-08T08:02:22.588Z,19.37
2022-10-08T08:05:26.080Z,18.93
2022-10-08T08:08:30.047Z,19.35
2022-10-08T08:11:32.745Z,18.27
2022-10-08T08:14:35.954Z,18.52
2022-10-08T08:17:39.766Z,18.00
2022-10-08T08:20:43.097Z,18.63
2022-10-08T08:23:49.317Z,18.83
2022-10-08T08:26:55.537Z,17.83
2022-10-08T08:30:01.119Z,17.88
2022-10-08T08:33:03.877Z,16.80
2022-10-08T08:36:07.077Z,17.07
2022-10-08T08:39:15.169Z,17.10
2022-10-08T08:42:46.471Z,17.15
2022-10-08T08:45:50.194Z,16.45
2022-10-08T08:48:57.466Z,16.33
2022-10-08T08:52:03.569Z,16.90
2022-10-08T08:55:15.396Z,16.83
2022-10-08T08:58:35.504Z,17.33
2022-10-08T09:01:45.992Z,17.63
2022-10-08T09:04:58.012Z,18.77
2022-10-08T09:08:22.583Z,17.07
2022-10-08T09:11:28.629Z,15.80
2022-10-08T09:14:40.778Z,16.02
2022-10-08T09:17:44.645Z,17.35
2022-10-08T09:20:47.235Z,16.47
2022-10-08T09:23:50.580Z,16.37
2022-10-08T09:26:53.949Z,16.05
2022-10-08T09:29:56.407Z,15.55
2022-10-08T09:33:01.964Z,15.50
2022-10-08T09:36:04.760Z,15.37
2022-10-08T09:39:23.515Z,15.67
2022-10-08T09:42:26.601Z,15.52
2022-10-08T09:45:38.879Z,15.63
2022-10-08T09:48:45.854Z,14.50
2022-10-08T09:51:50.544Z,15.00
2022-10-08T09:55:00.602Z,15.43
2022-10-08T09:58:04.224Z,15.77
2022-10-08T10:01:14.415Z,14.77
2022-10-08T10:04:34.302Z,14.77
2022-10-08T10:07:46.921Z,14.90
2022-10-08T10:10:50.323Z,14.60
2022-10-08T10:13:56.232Z,14.27
2022-10-08T10:17:05.559Z,13.98
2022-10-08T10:20:27.495Z,13.45
2022-10-08T10:23:42.688Z,12.77
2022-10-08T10:26:47.246Z,13.43
2022-10-08T10:30:17.560Z,13.23
2022-10-08T10:33:25.481Z,13.85
2022-10-08T10:36:34.208Z,12.68
2022-10-08T10:39:59.343Z,12.03
2022-10-08T10:43:32.571Z,12.90
2022-10-08T10:47:08.288Z,13.05
2022-10-08T10:50:15.321Z,12.68
2022-10-08T10:53:38.054Z,13.35
2022-10-08T10:56:51.480Z,12.70
2022-10-08T11:00:14.108Z,12.40
2022-10-08T11:03:36.261Z,13.15
2022-10-08T11:07:16.849Z,11.75
2022-10-08T11:10:46.445Z,11.13
2022-10-08T11:14:04.273Z,10.27
2022-10-08T11:17:21.922Z,10.40
2022-10-08T11:20:38.162Z,11.45
2022-10-08T11:24:19.068Z,10.50
2022-10-08T11:27:31.026Z,9.80
2022-10-08T11:30:47.474Z,9.70
2022-10-08T11:33:54.459Z,10.37
2022-10-08T11:37:08.626Z,9.85
2022-10-08T11:40:36.913Z,9.23
2022-10-08T11:43:55.406Z,9.57
2022-10-08T11:47:46.231Z,9.00
2022-10-08T11:50:48.934Z,9.23
2022-10-08T11:54:07.816Z,9.07
2022-10-08T11:57:20.278Z,9.50
2022-10-08T12:00:35.722Z,9.23
2022-10-08T12:03:42.786Z,8.73
2022-10-08T12:06:48.472Z,8.70
2022-10-08T12:10:06.579Z,8.48
2022-10-08T12:13:17.420Z,8.73
2022-10-08T12:16:21.161Z,7.65
2022-10-08T12:19:33.410Z,8.97
2022-10-08T12:22:36.705Z,8.93
2022-10-08T12:26:06.203Z,8.77
2022-10-08T12:29:27.509Z,8.20
2022-10-08T12:32:33.140Z,7.60
2022-10-08T12:36:02.248Z,7.13
2022-10-08T12:39:18.852Z,7.67
2022-10-08T12:42:31.340Z,7.47
2022-10-08T12:45:46.408Z,6.55
2022-10-08T12:48:54.414Z,5.97
2022-10-08T12:52:21.154Z,6.10
2022-10-08T12:55:26.064Z,5.57
2022-10-08T12:58:33.619Z,6.30
2022-10-08T13:01:37.285Z,5.60
2022-10-08T13:04:46.609Z,6.03
2022-10-08T13:07:50.297Z,5.80
2022-10-08T13:10:54.395Z,5.80
2022-10-08T13:13:57.953Z,5.78
2022-10-08T13:17:01.069Z,5.72
2022-10-08T13:20:15.195Z,5.72
2022-10-08T13:23:36.079Z,6.20
2022-10-08T13:26:53.396Z,5.93
2022-10-08T13:29:57.885Z,5.88
2022-10-08T13:33:09.936Z,5.65
2022-10-08T13:36:21.624Z,5.80
2022-10-08T13:39:31.765Z,5.97
2022-10-08T13:42:44.086Z,5.90
2022-10-08T13:45:46.677Z,5.80
2022-10-08T13:48:50.017Z,6.53
2022-10-08T13:51:52.549Z,6.40
2022-10-08T13:55:03.357Z,5.90
2022-10-08T13:58:06.996Z,6.30
2022-10-08T14:01:09.696Z,5.97
2022-10-08T14:04:13.700Z,6.32
2022-10-08T14:07:30.748Z,6.22
2022-10-08T14:10:35.001Z,6.20
2022-10-08T14:13:38.464Z,6.20
2022-10-08T14:16:42.934Z,6.80
2022-10-08T14:19:45.630Z,6.40
2022-10-08T14:22:48.160Z,6.45
2022-10-08T14:25:51.845Z,6.70
2022-10-08T14:28:55.025Z,6.13
2022-10-08T14:31:58.396Z,5.70
2022-10-08T14:35:02.117Z,6.20
2022-10-08T14:38:05.567Z,6.25
2022-10-08T14:41:08.850Z,6.13
2022-10-08T14:44:13.315Z,6.40
2022-10-08T14:47:15.813Z,6.18
2022-10-08T14:50:18.687Z,6.35
2022-10-08T14:53:22.016Z,7.03
2022-10-08T14:56:25.006Z,6.10
2022-10-08T14:59:27.623Z,6.30
2022-10-08T15:02:30.175Z,7.10
2022-10-08T15:05:33.620Z,6.53
2022-10-08T15:08:37.249Z,6.53
2022-10-08T15:11:39.870Z,7.40
2022-10-08T15:14:42.300Z,6.00
2022-10-08T15:17:45.205Z,6.20
2022-10-08T15:20:59.973Z,6.78
2022-10-08T15:24:02.473Z,6.70
2022-10-08T15:27:04.935Z,6.63
2022-10-08T15:30:08.099Z,6.57
2022-10-08T15:33:11.537Z,6.32
2022-10-08T15:36:28.220Z,5.85
2022-10-08T15:39:35.639Z,6.93
2022-10-08T15:42:39.103Z,6.93
2022-10-08T15:45:43.926Z,6.33
2022-10-08T15:48:56.322Z,6.50
2022-10-08T15:51:58.999Z,6.53
2022-10-08T15:55:02.708Z,6.90
2022-10-08T15:58:05.173Z,7.23
2022-10-08T16:01:13.270Z,8.03
2022-10-08T16:04:15.708Z,7.30
2022-10-08T16:07:18.224Z,7.18
2022-10-08T16:10:22.583Z,7.35
2022-10-08T16:13:25.639Z,7.70
2022-10-08T16:16:29.546Z,7.13
2022-10-08T16:19:33.174Z,7.55
2022-10-08T16:22:36.583Z,7.55
2022-10-08T16:25:43.534Z,7.88
2022-10-08T16:28:50.516Z,8.60
2022-10-08T16:31:53.007Z,8.23
2022-10-08T16:34:56.127Z,9.90
2022-10-08T16:37:59.813Z,9.18
2022-10-08T16:41:22.956Z,8.35
2022-10-08T16:44:25.636Z,9.50
2022-10-08T16:47:28.208Z,9.50
2022-10-08T16:50:31.689Z,8.93
2022-10-08T16:53:34.771Z,8.65
2022-10-08T16:56:40.049Z,9.45
2022-10-08T16:59:43.278Z,9.73
2022-10-08T17:02:46.151Z,9.63
2022-10-08T17:05:49.745Z,9.93
2022-10-08T17:08:53.975Z,9.25
2022-10-08T17:11:57.261Z,9.40
2022-10-08T17:14:59.869Z,10.07
2022-10-08T17:18:02.454Z,11.53
2022-10-08T17:21:05.574Z,10.77
2022-10-08T17:24:10.093Z,12.00
2022-10-08T17:27:13.481Z,12.07
2022-10-08T17:30:16.078Z,11.40
2022-10-08T17:33:22.805Z,11.40
2022-10-08T17:36:31.622Z,12.60
2022-10-08T17:39:34.712Z,12.20
2022-10-08T17:42:37.154Z,12.10
2022-10-08T17:45:40.213Z,12.27
2022-10-08T17:48:43.540Z,12.57
2022-10-08T17:51:46.398Z,11.85
2022-10-08T17:54:49.782Z,12.50
2022-10-08T17:57:52.553Z,12.82
2022-10-08T18:01:07.186Z,15.40
2022-10-08T18:04:11.970Z,13.53
2022-10-08T18:07:15.234Z,14.02
2022-10-08T18:10:17.857Z,17.75
2022-10-08T18:13:21.458Z,15.40
2022-10-08T18:16:25.892Z,14.83
2022-10-08T18:19:28.505Z,14.30
2022-10-08T18:22:31.005Z,14.90
2022-10-08T18:25:33.538Z,15.07
2022-10-08T18:28:37.207Z,16.45
2022-10-08T18:31:42.396Z,15.53
2022-10-08T18:34:45.901Z,16.67
2022-10-08T18:37:48.377Z,15.77
2022-10-08T18:40:51.113Z,15.70
2022-10-08T18:43:55.181Z,16.10
2022-10-08T18:47:01.793Z,14.73
2022-10-08T18:50:08.758Z,16.50
2022-10-08T18:53:11.403Z,16.38
2022-10-08T18:56:19.998Z,15.43
2022-10-08T18:59:24.305Z,15.48
2022-10-08T19:02:26.942Z,15.53
2022-10-08T19:05:29.717Z,15.97
2022-10-08T19:08:32.877Z,15.10
2022-10-08T19:11:44.390Z,14.15
2022-10-08T19:14:49.553Z,15.45
2022-10-08T19:17:52.121Z,16.97
2022-10-08T19:20:55.392Z,16.70
2022-10-08T19:23:59.810Z,16.23
2022-10-08T19:27:03.419Z,16.23
2022-10-08T19:30:07.443Z,16.65
2022-10-08T19:33:10.854Z,16.83
2022-10-08T19:36:15.106Z,16.07
2022-10-08T19:39:21.302Z,16.05
2022-10-08T19:42:24.462Z,16.40
2022-10-08T19:45:26.967Z,16.05
2022-10-08T19:48:30.420Z,17.13
2022-10-08T19:51:33.701Z,17.43
2022-10-08T19:54:37.041Z,16.10
2022-10-08T19:57:39.483Z,14.95
2022-10-08T20:00:42.991Z,16.55
2022-10-08T20:03:46.982Z,16.27
2022-10-08T20:06:50.541Z,16.33
2022-10-08T20:09:53.280Z,17.40
2022-10-08T20:12:55.769Z,16.52
2022-10-08T20:16:26.340Z,16.67
2022-10-08T20:19:29.522Z,17.60
2022-10-08T20:22:32.935Z,17.13
2022-10-08T20:25:36.004Z,18.13
2022-10-08T20:28:39.837Z,16.63
2022-10-08T20:31:46.425Z,17.02
2022-10-08T20:34:49.008Z,16.83
2022-10-08T20:37:52.432Z,17.23
2022-10-08T20:40:56.018Z,17.15
2022-10-08T20:44:03.533Z,18.02
2022-10-08T20:47:06.058Z,17.08
2022-10-08T20:50:09.878Z,16.60
2022-10-08T20:53:12.412Z,16.13
2022-10-08T20:56:15.821Z,17.00
2022-10-08T20:59:19.481Z,17.45
2022-10-08T21:02:22.078Z,16.85
2022-10-08T21:05:24.899Z,17.70
2022-10-08T21:08:28.107Z,21.83
2022-10-08T21:11:32.156Z,17.38
2022-10-08T21:14:35.464Z,18.73
2022-10-08T21:17:38.514Z,18.02
2022-10-08T21:20:41.979Z,17.97
2022-10-08T21:23:45.485Z,17.77
2022-10-08T21:26:48.641Z,17.77
2022-10-08T21:29:51.479Z,16.98
2022-10-08T21:32:54.830Z,18.10
2022-10-08T21:35:58.140Z,19.17
2022-10-08T21:39:03.244Z,19.60
2022-10-08T21:42:09.489Z,19.73
2022-10-08T21:45:12.502Z,20.58
2022-10-08T21:48:15.056Z,18.98
2022-10-08T21:51:20.239Z,18.20
2022-10-08T21:54:23.508Z,17.23
2022-10-08T21:57:25.983Z,17.20
2022-10-08T22:00:32.087Z,17.40
2022-10-08T22:03:35.652Z,17.13
2022-10-08T22:06:42.496Z,18.27
2022-10-08T22:09:45.202Z,18.60
2022-10-08T22:12:51.486Z,17.98
2022-10-08T22:16:02.438Z,17.95
2022-10-08T22:19:05.882Z,17.35
2022-10-08T22:22:08.400Z,18.87
2022-10-08T22:25:12.723Z,18.47
2022-10-08T22:28:16.125Z,25.48
2022-10-08T22:31:20.338Z,18.38
2022-10-08T22:34:22.991Z,17.23
2022-10-08T22:37:26.125Z,17.70
2022-10-08T22:40:30.408Z,17.90
2022-10-08T22:43:35.555Z,17.25
2022-10-08T22:46:39.313Z,17.77
2022-10-08T22:49:42.635Z,18.55
2022-10-08T22:52:47.585Z,18.60
2022-10-08T22:55:50.234Z,18.07
2022-10-08T22:58:53.844Z,17.92
2022-10-08T23:01:57.203Z,19.05
2022-10-08T23:05:00.637Z,18.40
2022-10-08T23:08:03.831Z,17.40
2022-10-08T23:11:08.472Z,18.00
2022-10-08T23:14:11.825Z,17.38
2022-10-08T23:17:14.322Z,16.73
2022-10-08T23:20:16.941Z,17.77
2022-10-08T23:23:19.502Z,17.97
2022-10-08T23:26:23.193Z,17.47
2022-10-08T23:29:26.128Z,16.98
2022-10-08T23:32:28.577Z,18.80
2022-10-08T23:35:32.121Z,17.95
2022-10-08T23:38:35.987Z,17.57
2022-10-08T23:41:38.663Z,17.80
2022-10-08T23:44:42.621Z,19.73
2022-10-08T23:47:45.412Z,20.48
2022-10-08T23:50:52.374Z,21.90
2022-10-08T23:53:55.244Z,21.27
2022-10-08T23:56:57.777Z,22.80
